createdAt,value
2019-01-15T00:03:29.875Z,6.43
2019-01-15T00:06:18.734Z,6.10
2019-01-15T00:09:08.010Z,4.67
2019-01-15T00:11:56.862Z,3.10
2019-01-15T00:14:45.647Z,3.47
2019-01-15T00:17:34.494Z,3.10
2019-01-15T00:20:23.346Z,4.10
2019-01-15T00:23:12.328Z,2.07
2019-01-15T00:26:01.150Z,2.83
2019-01-15T00:28:49.977Z,4.37
2019-01-15T00:31:31.633Z,4.57
2019-01-15T00:34:20.472Z,3.10
2019-01-15T00:37:09.357Z,4.83
2019-01-15T00:39:58.283Z,4.27
2019-01-15T00:42:47.148Z,4.13
2019-01-15T00:45:36.021Z,2.97
2019-01-15T00:48:24.858Z,4.87
2019-01-15T00:51:13.785Z,3.33
2019-01-15T00:54:02.628Z,4.13
2019-01-15T00:56:51.453Z,3.40
2019-01-15T00:59:40.332Z,4.13
2019-01-15T01:02:09.890Z,4.30
2019-01-15T01:04:58.814Z,4.97
2019-01-15T01:07:47.708Z,4.33
2019-01-15T01:10:29.379Z,3.00
2019-01-15T01:13:18.331Z,3.63
2019-01-15T01:16:07.240Z,3.27
2019-01-15T01:18:56.068Z,3.93
2019-01-15T01:21:44.936Z,2.53
2019-01-15T01:24:33.781Z,4.27
2019-01-15T01:27:22.593Z,5.43
2019-01-15T01:30:30.768Z,4.87
2019-01-15T01:33:19.719Z,2.73
2019-01-15T01:36:08.565Z,3.50
2019-01-15T01:38:57.495Z,3.70
2019-01-15T01:41:46.305Z,4.10
2019-01-15T01:44:35.219Z,3.50
2019-01-15T01:47:24.086Z,4.47
2019-01-15T01:50:33.864Z,5.57
2019-01-15T01:53:22.720Z,4.37
2019-01-15T01:56:11.638Z,6.73
2019-01-15T01:59:00.495Z,3.97
2019-01-15T02:01:49.468Z,5.10
2019-01-15T02:04:18.984Z,3.77
2019-01-15T02:06:48.588Z,3.53
2019-01-15T02:15:29.663Z,4.87
2019-01-15T02:18:18.508Z,2.83
2019-01-15T02:21:07.385Z,4.30
2019-01-15T02:23:56.310Z,6.00
2019-01-15T02:29:42.080Z,5.23
2019-01-15T02:32:24.108Z,6.00
2019-01-15T02:35:13.084Z,3.93
2019-01-15T02:38:01.886Z,6.93
2019-01-15T02:40:50.770Z,5.63
2019-01-15T02:43:39.571Z,7.20
2019-01-15T02:46:28.416Z,6.30
2019-01-15T02:49:17.210Z,4.77
2019-01-15T02:52:06.110Z,6.80
2019-01-15T02:54:35.598Z,8.07
2019-01-15T02:57:24.425Z,5.70
2019-01-15T03:00:34.247Z,4.20
2019-01-15T03:03:23.040Z,4.63
2019-01-15T03:06:11.971Z,3.87
2019-01-15T03:09:00.923Z,5.30
2019-01-15T03:11:49.731Z,5.80
2019-01-15T03:14:38.582Z,3.87
2019-01-15T03:17:27.382Z,7.53
2019-01-15T03:20:37.691Z,6.07
2019-01-15T03:23:26.686Z,5.77
2019-01-15T03:26:15.514Z,5.27
2019-01-15T03:28:57.422Z,4.80
2019-01-15T03:31:46.225Z,5.13
2019-01-15T03:34:27.538Z,5.83
2019-01-15T03:36:57.053Z,5.30
2019-01-15T03:39:45.868Z,5.10
2019-01-15T03:42:34.774Z,4.97
2019-01-15T03:45:23.650Z,8.93
2019-01-15T03:48:12.508Z,6.70
2019-01-15T03:50:41.989Z,6.73
2019-01-15T03:53:30.837Z,8.03
2019-01-15T03:56:19.644Z,5.90
2019-01-15T03:59:08.480Z,9.60
2019-01-15T04:01:57.319Z,5.47
2019-01-15T04:04:46.698Z,8.97
2019-01-15T04:10:31.452Z,7.67
2019-01-15T04:13:21.887Z,6.90
2019-01-15T04:16:10.886Z,7.43
2019-01-15T04:18:59.704Z,7.57
2019-01-15T04:21:48.550Z,6.93
2019-01-15T04:24:37.396Z,8.80
2019-01-15T04:27:26.257Z,7.47
2019-01-15T04:30:36.047Z,8.40
2019-01-15T04:33:17.867Z,11.43
2019-01-15T04:36:06.784Z,10.13
2019-01-15T04:38:55.616Z,11.43
2019-01-15T04:41:44.530Z,8.20
2019-01-15T04:44:33.420Z,8.20
2019-01-15T04:47:22.228Z,8.63
2019-01-15T04:50:11.258Z,10.10
2019-01-15T04:55:55.683Z,9.10
2019-01-15T04:58:46.347Z,9.03
2019-01-15T05:01:35.142Z,6.30
2019-01-15T05:04:24.103Z,6.53
2019-01-15T05:07:13.000Z,7.97
2019-01-15T05:10:01.869Z,8.70
2019-01-15T05:12:50.744Z,7.73
2019-01-15T05:15:39.591Z,8.00
2019-01-15T05:18:28.445Z,6.90
2019-01-15T05:21:17.267Z,6.53
2019-01-15T05:24:06.294Z,8.67
2019-01-15T05:26:55.114Z,8.33
2019-01-15T05:29:44.018Z,8.87
2019-01-15T05:32:32.895Z,6.43
2019-01-15T05:35:14.346Z,8.37
2019-01-15T05:38:03.160Z,8.03
2019-01-15T05:40:52.077Z,7.20
2019-01-15T05:43:40.918Z,7.83
2019-01-15T05:46:29.768Z,5.83
2019-01-15T05:49:18.580Z,8.40
2019-01-15T05:52:07.431Z,7.97
2019-01-15T05:54:56.335Z,8.63
2019-01-15T05:57:45.207Z,8.67
2019-01-15T06:00:34.124Z,7.53
2019-01-15T06:03:23.041Z,8.83
2019-01-15T06:06:11.940Z,6.43
2019-01-15T06:09:00.761Z,8.03
2019-01-15T06:11:49.251Z,8.93
2019-01-15T06:14:37.747Z,6.80
2019-01-15T06:17:26.695Z,7.63
2019-01-15T06:20:36.438Z,8.90
2019-01-15T06:23:25.302Z,6.37
2019-01-15T06:26:07.361Z,8.70
2019-01-15T06:28:56.420Z,9.90
2019-01-15T06:31:45.269Z,9.20
2019-01-15T06:34:34.147Z,8.83
2019-01-15T06:37:22.995Z,8.30
2019-01-15T06:40:31.141Z,8.03
2019-01-15T06:43:19.990Z,7.87
2019-01-15T06:46:08.873Z,6.90
2019-01-15T06:48:57.783Z,8.87
2019-01-15T06:51:27.369Z,8.53
2019-01-15T06:54:16.268Z,8.90
2019-01-15T06:57:05.283Z,10.10
2019-01-15T06:59:55.055Z,11.10
2019-01-15T07:02:44.730Z,11.53
2019-01-15T07:05:33.651Z,8.43
2019-01-15T07:08:03.361Z,9.37
2019-01-15T07:10:52.269Z,10.07
2019-01-15T07:13:41.077Z,8.37
2019-01-15T07:19:10.107Z,9.00
2019-01-15T07:21:52.293Z,9.87
2019-01-15T07:24:53.108Z,9.13
2019-01-15T07:27:12.411Z,12.93
2019-01-15T07:30:01.238Z,9.67
2019-01-15T07:32:30.796Z,8.37
2019-01-15T07:35:19.718Z,8.97
2019-01-15T07:38:08.590Z,8.00
2019-01-15T07:40:57.427Z,9.67
2019-01-15T07:43:46.232Z,7.40
2019-01-15T07:46:35.074Z,7.50
2019-01-15T07:49:23.874Z,8.00
2019-01-15T07:51:53.365Z,6.00
2019-01-15T07:57:38.168Z,7.20
2019-01-15T08:00:27.344Z,9.00
2019-01-15T08:03:16.252Z,6.57
2019-01-15T08:06:05.544Z,7.27
2019-01-15T08:08:54.360Z,7.17
2019-01-15T08:11:43.385Z,8.83
2019-01-15T08:14:32.277Z,6.83
2019-01-15T08:17:21.105Z,9.00
2019-01-15T08:20:30.875Z,9.80
2019-01-15T08:23:19.346Z,7.43
2019-01-15T08:26:07.896Z,6.60
2019-01-15T08:28:37.525Z,7.37
2019-01-15T08:31:26.954Z,8.37
2019-01-15T08:34:15.795Z,8.60
2019-01-15T08:37:04.745Z,8.03
2019-01-15T08:39:53.552Z,10.80
2019-01-15T08:42:42.494Z,9.83
2019-01-15T08:45:31.391Z,12.37
2019-01-15T08:48:19.900Z,16.47
2019-01-15T08:56:40.654Z,11.13
2019-01-15T08:59:29.496Z,10.97
2019-01-15T09:02:17.995Z,11.17
2019-01-15T09:05:07.238Z,12.60
2019-01-15T09:07:56.130Z,15.40
2019-01-15T09:10:37.563Z,13.33
2019-01-15T09:13:07.249Z,9.17
2019-01-15T09:15:56.076Z,11.47
2019-01-15T09:18:25.652Z,12.30
2019-01-15T09:21:14.553Z,10.70
2019-01-15T09:24:03.383Z,11.57
2019-01-15T09:26:52.299Z,10.50
2019-01-15T09:29:41.300Z,11.80
2019-01-15T09:32:30.208Z,15.77
2019-01-15T09:35:12.297Z,13.30
2019-01-15T09:40:56.602Z,14.47
2019-01-15T09:43:46.141Z,13.00
2019-01-15T09:46:35.069Z,16.93
2019-01-15T09:49:23.879Z,10.90
2019-01-15T09:52:20.212Z,16.17
2019-01-15T09:55:03.613Z,14.70
2019-01-15T09:57:33.146Z,14.63
2019-01-15T10:00:22.103Z,13.67
2019-01-15T10:03:10.972Z,10.93
2019-01-15T10:05:59.873Z,12.50
2019-01-15T10:08:48.745Z,16.03
2019-01-15T10:11:39.168Z,14.47
2019-01-15T10:14:21.370Z,16.03
2019-01-15T10:17:10.302Z,15.87
2019-01-15T10:19:59.114Z,12.17
2019-01-15T10:22:48.672Z,16.17
2019-01-15T10:28:15.350Z,14.40
2019-01-15T10:31:25.453Z,20.43
2019-01-15T10:34:35.322Z,13.90
2019-01-15T10:37:24.162Z,14.60
2019-01-15T10:40:12.996Z,13.70
2019-01-15T10:43:01.874Z,12.80
2019-01-15T10:45:50.731Z,14.90
2019-01-15T10:48:39.549Z,12.83
2019-01-15T10:51:28.385Z,11.23
2019-01-15T10:54:17.206Z,14.13
2019-01-15T10:57:06.181Z,13.73
2019-01-15T10:59:55.012Z,14.80
2019-01-15T11:02:43.876Z,13.63
2019-01-15T11:05:32.738Z,12.30
2019-01-15T11:08:02.307Z,11.77
2019-01-15T11:10:51.226Z,11.53
2019-01-15T11:13:40.136Z,12.47
2019-01-15T11:16:28.933Z,10.83
2019-01-15T11:19:17.785Z,9.57
2019-01-15T11:22:06.727Z,12.33
2019-01-15T11:24:55.606Z,8.37
2019-01-15T11:27:44.561Z,8.97
2019-01-15T11:30:40.555Z,7.30
2019-01-15T11:33:10.077Z,10.03
2019-01-15T11:35:58.949Z,7.53
2019-01-15T11:38:40.597Z,7.17
2019-01-15T11:41:29.480Z,5.23
2019-01-15T11:43:58.973Z,5.53
2019-01-15T11:46:47.889Z,7.00
2019-01-15T11:49:36.739Z,7.40
2019-01-15T11:52:25.588Z,8.77
2019-01-15T11:55:15.106Z,6.03
2019-01-15T11:58:03.926Z,6.00
2019-01-15T12:04:08.219Z,6.97
2019-01-15T12:07:16.103Z,8.77
2019-01-15T12:17:08.743Z,4.27
2019-01-15T12:20:00.598Z,7.40
2019-01-15T12:25:34.134Z,11.63
2019-01-15T12:29:08.924Z,4.27
2019-01-15T12:31:58.842Z,5.50
2019-01-15T12:38:06.217Z,6.30
2019-01-15T12:41:14.097Z,6.23
2019-01-15T12:44:21.942Z,6.07
2019-01-15T12:47:29.963Z,7.67
2019-01-15T12:50:37.892Z,7.17
2019-01-15T12:53:45.833Z,6.40
2019-01-15T12:56:29.312Z,6.80
2019-01-15T12:59:37.196Z,4.33
2019-01-15T13:08:17.279Z,7.13
2019-01-15T13:11:05.987Z,5.40
2019-01-15T13:14:13.941Z,6.63
2019-01-15T13:17:21.829Z,7.80
2019-01-15T13:20:50.604Z,7.33
2019-01-15T13:30:04.092Z,6.60
2019-01-15T13:36:07.791Z,4.80
2019-01-15T13:42:11.760Z,2.83
2019-01-15T13:45:19.657Z,3.67
2019-01-15T13:48:27.798Z,6.60
2019-01-15T13:54:45.068Z,5.67
2019-01-15T13:57:53.003Z,5.60
2019-01-15T14:00:41.604Z,6.67
2019-01-15T14:03:49.468Z,4.10
2019-01-15T14:06:38.021Z,3.17
2019-01-15T14:09:45.995Z,9.77
2019-01-15T14:12:53.843Z,5.67
2019-01-15T14:15:55.036Z,5.90
2019-01-15T14:18:43.622Z,7.07
2019-01-15T14:21:32.171Z,9.37
2019-01-15T14:24:40.045Z,5.47
2019-01-15T14:36:39.032Z,6.13
2019-01-15T14:39:39.770Z,5.93
2019-01-15T14:42:47.657Z,8.83
2019-01-15T14:45:56.621Z,7.60
2019-01-15T14:48:45.868Z,5.90
2019-01-15T14:51:53.748Z,8.93
2019-01-15T14:55:01.612Z,7.10
2019-01-15T14:57:50.178Z,5.50
2019-01-15T15:00:58.130Z,7.97
2019-01-15T15:06:42.630Z,4.30
2019-01-15T15:09:31.250Z,8.87
2019-01-15T15:12:39.127Z,6.80
2019-01-15T15:21:52.329Z,7.40
2019-01-15T15:25:00.279Z,7.57
2019-01-15T15:28:08.215Z,5.03
2019-01-15T15:30:56.822Z,5.80
2019-01-15T15:34:04.719Z,6.13
2019-01-15T15:37:12.915Z,3.73
2019-01-15T15:40:14.236Z,6.60
2019-01-15T15:43:22.193Z,5.27
2019-01-15T15:46:30.131Z,5.50
2019-01-15T15:49:38.033Z,5.37
2019-01-15T15:52:45.989Z,7.20
2019-01-15T15:55:53.935Z,6.13
2019-01-15T15:59:01.856Z,7.47
2019-01-15T16:05:19.215Z,6.53
2019-01-15T16:08:27.166Z,8.73
2019-01-15T16:17:07.826Z,6.50
2019-01-15T16:23:05.829Z,6.83
2019-01-15T16:26:13.771Z,7.30
2019-01-15T16:29:02.328Z,6.73
2019-01-15T16:31:50.856Z,5.83
2019-01-15T16:34:39.416Z,5.13
2019-01-15T16:40:34.505Z,5.63
2019-01-15T16:43:42.473Z,4.93
2019-01-15T16:46:50.391Z,4.20
2019-01-15T16:49:58.485Z,4.80
2019-01-15T16:53:06.494Z,4.93
2019-01-15T16:55:55.137Z,5.80
2019-01-15T16:59:03.029Z,3.60
2019-01-15T17:02:10.980Z,3.97
2019-01-15T17:05:18.941Z,5.10
2019-01-15T17:08:26.885Z,4.43
2019-01-15T17:11:34.884Z,5.13
2019-01-15T17:14:42.794Z,6.20
2019-01-15T17:17:31.380Z,4.77
2019-01-15T17:23:38.530Z,5.40
2019-01-15T17:29:23.090Z,3.20
2019-01-15T17:32:30.961Z,3.47
2019-01-15T17:35:38.825Z,3.53
2019-01-15T17:38:39.139Z,3.87
2019-01-15T17:44:23.640Z,4.57
2019-01-15T17:47:31.656Z,4.87
2019-01-15T17:50:39.666Z,7.50
2019-01-15T17:56:56.987Z,4.37
2019-01-15T17:59:45.527Z,4.27
2019-01-15T18:02:53.394Z,3.43
2019-01-15T18:06:01.326Z,4.07
2019-01-15T18:09:09.210Z,4.60
2019-01-15T18:12:17.109Z,5.60
2019-01-15T18:14:46.463Z,6.57
2019-01-15T18:17:54.333Z,4.97
2019-01-15T18:21:02.297Z,6.83
2019-01-15T18:27:19.571Z,6.70
2019-01-15T18:30:48.393Z,4.87
2019-01-15T18:33:56.358Z,5.07
2019-01-15T18:37:04.251Z,8.67
2019-01-15T18:39:48.052Z,6.90
2019-01-15T18:42:55.977Z,7.50
2019-01-15T18:46:03.877Z,5.57
2019-01-15T18:49:11.737Z,6.57
2019-01-15T18:52:19.692Z,4.53
2019-01-15T18:58:37.125Z,5.73
2019-01-15T19:01:25.803Z,5.50
2019-01-15T19:04:33.751Z,5.43
2019-01-15T19:07:22.373Z,6.77
2019-01-15T19:10:30.475Z,7.13
2019-01-15T19:13:19.072Z,6.13
2019-01-15T19:16:27.085Z,4.07
2019-01-15T19:19:12.060Z,8.90
2019-01-15T19:25:15.890Z,5.27
2019-01-15T19:28:23.817Z,4.60
2019-01-15T19:31:31.689Z,4.57
2019-01-15T19:34:39.630Z,4.50
2019-01-15T19:37:47.490Z,3.93
2019-01-15T19:46:25.390Z,6.97
2019-01-15T19:49:33.327Z,5.00
2019-01-15T19:52:41.184Z,5.50
2019-01-15T19:55:49.041Z,5.03
2019-01-15T20:01:52.721Z,4.80
2019-01-15T20:04:41.340Z,4.20
2019-01-15T20:07:49.283Z,4.23
2019-01-15T20:16:34.228Z,3.77
2019-01-15T20:19:16.399Z,3.83
2019-01-15T20:22:05.092Z,3.80
2019-01-15T20:25:12.944Z,3.37
2019-01-15T20:28:01.625Z,4.57
2019-01-15T20:31:09.572Z,3.97
2019-01-15T20:34:17.452Z,3.40
2019-01-15T20:37:25.395Z,3.80
2019-01-15T20:40:33.452Z,3.67
2019-01-15T20:43:41.407Z,3.93
2019-01-15T20:46:49.364Z,3.37
2019-01-15T20:49:57.212Z,5.53
2019-01-15T20:53:05.174Z,4.17
2019-01-15T20:55:53.879Z,4.50
2019-01-15T20:59:01.774Z,4.43
2019-01-15T21:02:09.727Z,4.60
2019-01-15T21:05:17.594Z,3.07
2019-01-15T21:08:25.571Z,3.80
2019-01-15T21:11:33.467Z,5.20
2019-01-15T21:14:41.434Z,4.20
2019-01-15T21:20:45.237Z,5.20
2019-01-15T21:23:33.815Z,4.33
2019-01-15T21:26:41.755Z,4.73
2019-01-15T21:29:49.644Z,3.90
2019-01-15T21:32:38.240Z,5.37
2019-01-15T21:35:46.125Z,4.93
2019-01-15T21:38:53.967Z,4.67
2019-01-15T21:41:37.195Z,5.70
2019-01-15T21:47:54.521Z,4.63
2019-01-15T21:50:43.352Z,4.00
2019-01-15T21:53:31.967Z,4.00
2019-01-15T21:59:49.436Z,4.30
2019-01-15T22:06:06.767Z,4.70
2019-01-15T22:09:14.661Z,3.77
2019-01-15T22:12:22.480Z,5.23
2019-01-15T22:15:30.446Z,4.23
2019-01-15T22:18:38.325Z,4.00
2019-01-15T22:21:46.231Z,4.53
2019-01-15T22:24:54.075Z,3.43
2019-01-15T22:30:57.765Z,6.00
2019-01-15T22:34:05.600Z,4.47
2019-01-15T22:36:54.291Z,5.07
2019-01-15T22:40:02.154Z,4.37
2019-01-15T22:42:50.719Z,4.13
2019-01-15T22:48:38.638Z,4.27
2019-01-15T22:51:46.503Z,4.27
2019-01-15T22:57:50.176Z,3.43
2019-01-15T23:01:18.958Z,3.67
2019-01-15T23:04:47.749Z,4.90
2019-01-15T23:07:55.700Z,3.03
2019-01-15T23:11:03.532Z,4.23
2019-01-15T23:14:11.480Z,3.97
2019-01-15T23:17:19.362Z,3.80
2019-01-15T23:20:48.142Z,4.20
2019-01-15T23:23:56.079Z,3.57
2019-01-15T23:27:03.904Z,3.20
2019-01-15T23:30:11.830Z,2.73
2019-01-15T23:33:19.662Z,3.43
2019-01-15T23:39:44.583Z,3.10
2019-01-15T23:42:27.619Z,2.70
2019-01-15T23:45:28.696Z,3.47
2019-01-15T23:48:36.605Z,3.67
2019-01-15T23:51:44.427Z,2.90
2019-01-15T23:54:32.970Z,2.93
2019-01-15T23:57:40.881Z,3.07
